createdAt,value
2023-05-06T00:01:21.703Z,86.70
2023-05-06T00:03:50.854Z,86.70
2023-05-06T00:06:21.423Z,86.70
2023-05-06T00:08:50.422Z,86.70
2023-05-06T00:11:19.400Z,86.80
2023-05-06T00:14:02.909Z,86.80
2023-05-06T00:16:51.622Z,86.80
2023-05-06T00:19:20.903Z,86.80
2023-05-06T00:21:51.300Z,86.70
2023-05-06T00:24:20.390Z,86.70
2023-05-06T00:26:49.405Z,86.70
2023-05-06T00:29:18.590Z,86.70
2023-05-06T00:31:47.730Z,86.70
2023-05-06T00:34:16.770Z,86.70
2023-05-06T00:36:45.795Z,86.70
2023-05-06T00:39:16.375Z,86.80
2023-05-06T00:41:45.394Z,86.80
2023-05-06T00:44:14.405Z,86.80
2023-05-06T00:46:44.682Z,86.70
2023-05-06T00:49:13.899Z,86.90
2023-05-06T00:51:43.046Z,87.00
2023-05-06T00:54:12.112Z,87.00
2023-05-06T00:56:42.919Z,86.90
2023-05-06T00:59:11.998Z,86.80
2023-05-06T01:01:49.151Z,86.80
2023-05-06T01:04:18.619Z,86.70
2023-05-06T01:06:56.837Z,86.80
2023-05-06T01:09:34.028Z,86.90
2023-05-06T01:12:28.341Z,87.00
2023-05-06T01:15:09.068Z,87.10
2023-05-06T01:17:50.443Z,87.30
2023-05-06T01:20:21.283Z,87.40
2023-05-06T01:22:51.273Z,87.40
2023-05-06T01:25:22.777Z,87.40
2023-05-06T01:27:51.984Z,87.40
2023-05-06T01:30:22.753Z,87.30
2023-05-06T01:33:01.903Z,87.20
2023-05-06T01:35:51.394Z,87.20
2023-05-06T01:38:31.259Z,87.30
2023-05-06T01:41:03.309Z,87.10
2023-05-06T01:43:41.891Z,87.00
2023-05-06T01:46:19.202Z,87.20
2023-05-06T01:48:50.942Z,87.10
2023-05-06T01:51:19.934Z,87.10
2023-05-06T01:53:49.017Z,87.10
2023-05-06T01:56:19.826Z,87.10
2023-05-06T01:58:48.915Z,87.20
2023-05-06T02:01:17.932Z,87.20
2023-05-06T02:03:47.039Z,87.30
2023-05-06T02:06:16.407Z,87.30
2023-05-06T02:08:46.532Z,87.40
2023-05-06T02:11:21.970Z,87.50
2023-05-06T02:14:04.043Z,87.60
2023-05-06T02:16:56.388Z,87.60
2023-05-06T02:19:26.585Z,87.50
2023-05-06T02:21:55.886Z,87.40
2023-05-06T02:24:26.795Z,87.40
2023-05-06T02:26:57.201Z,87.30
2023-05-06T02:29:26.233Z,87.30
2023-05-06T02:31:55.331Z,87.30
2023-05-06T02:34:25.141Z,87.40
2023-05-06T02:36:54.168Z,87.40
2023-05-06T02:39:24.736Z,88.20
2023-05-06T02:41:53.728Z,87.40
2023-05-06T02:44:24.119Z,87.40
2023-05-06T02:46:53.531Z,87.30
2023-05-06T02:49:22.552Z,87.30
2023-05-06T02:51:51.548Z,87.40
2023-05-06T02:54:26.796Z,87.50
2023-05-06T02:57:28.342Z,87.70
2023-05-06T02:59:58.977Z,88.20
2023-05-06T03:02:28.099Z,88.20
2023-05-06T03:04:57.583Z,88.40
2023-05-06T03:07:40.218Z,88.50
2023-05-06T03:10:37.101Z,88.80
2023-05-06T03:13:06.473Z,89.10
2023-05-06T03:15:36.923Z,89.00
2023-05-06T03:18:06.268Z,89.20
2023-05-06T03:20:35.703Z,89.30
2023-05-06T03:23:04.732Z,89.60
2023-05-06T03:25:33.803Z,89.70
2023-05-06T03:28:02.931Z,89.90
2023-05-06T03:30:33.623Z,89.90
2023-05-06T03:33:07.743Z,90.00
2023-05-06T03:35:37.148Z,90.10
2023-05-06T03:38:06.277Z,90.10
2023-05-06T03:40:42.938Z,90.10
2023-05-06T03:43:14.359Z,90.20
2023-05-06T03:45:45.086Z,90.20
2023-05-06T03:48:21.364Z,90.30
2023-05-06T03:50:53.873Z,90.40
2023-05-06T03:53:23.439Z,90.40
2023-05-06T03:55:54.004Z,90.40
2023-05-06T03:58:23.907Z,90.50
2023-05-06T04:00:54.026Z,90.50
2023-05-06T04:03:24.578Z,90.50
2023-05-06T04:05:54.341Z,90.60
2023-05-06T04:08:27.705Z,90.60
2023-05-06T04:10:59.374Z,90.60
2023-05-06T04:13:31.114Z,90.60
2023-05-06T04:16:35.599Z,90.60
2023-05-06T04:19:42.092Z,90.60
2023-05-06T04:22:11.166Z,90.50
2023-05-06T04:24:41.827Z,90.50
2023-05-06T04:27:12.304Z,90.60
2023-05-06T04:29:43.486Z,90.60
2023-05-06T04:32:12.922Z,90.60
2023-05-06T04:34:43.583Z,90.70
2023-05-06T04:37:16.716Z,90.70
2023-05-06T04:39:50.629Z,90.80
2023-05-06T04:42:46.093Z,90.90
2023-05-06T04:45:20.430Z,90.90
2023-05-06T04:47:56.086Z,90.90
2023-05-06T04:50:26.559Z,91.00
2023-05-06T04:52:56.184Z,91.00
2023-05-06T04:55:25.532Z,91.10
2023-05-06T04:58:03.974Z,90.90
2023-05-06T05:00:33.263Z,91.00
2023-05-06T05:03:14.091Z,91.10
2023-05-06T05:06:01.009Z,91.20
2023-05-06T05:08:47.795Z,91.20
2023-05-06T05:11:26.017Z,91.20
2023-05-06T05:14:02.288Z,91.30
2023-05-06T05:16:55.113Z,91.30
2023-05-06T05:19:29.426Z,91.30
2023-05-06T05:22:15.609Z,91.30
2023-05-06T05:25:19.419Z,91.40
2023-05-06T05:27:53.659Z,91.50
2023-05-06T05:30:25.326Z,91.50
2023-05-06T05:32:57.885Z,91.50
2023-05-06T05:35:27.033Z,91.50
2023-05-06T05:37:57.974Z,91.60
2023-05-06T05:40:27.094Z,91.60
2023-05-06T05:42:56.660Z,91.60
2023-05-06T05:45:34.762Z,91.60
2023-05-06T05:48:04.164Z,91.60
2023-05-06T05:50:33.336Z,91.60
2023-05-06T05:53:03.925Z,91.50
2023-05-06T05:55:33.103Z,91.60
2023-05-06T05:58:02.144Z,91.50
2023-05-06T06:00:32.309Z,91.60
2023-05-06T06:03:08.865Z,91.60
2023-05-06T06:05:37.957Z,91.50
2023-05-06T06:08:08.742Z,91.50
2023-05-06T06:10:37.927Z,91.40
2023-05-06T06:13:13.608Z,91.40
2023-05-06T06:15:43.450Z,91.20
2023-05-06T06:18:12.467Z,91.20
2023-05-06T06:20:41.631Z,91.10
2023-05-06T06:23:15.279Z,91.10
2023-05-06T06:25:44.352Z,91.00
2023-05-06T06:28:13.384Z,90.90
2023-05-06T06:30:42.792Z,90.90
2023-05-06T06:33:12.096Z,90.90
2023-05-06T06:35:42.440Z,90.90
2023-05-06T06:38:12.903Z,90.80
2023-05-06T06:40:41.941Z,90.80
2023-05-06T06:43:10.994Z,90.80
2023-05-06T06:45:58.430Z,90.70
2023-05-06T06:48:27.552Z,90.70
2023-05-06T06:50:56.647Z,90.70
2023-05-06T06:53:27.139Z,90.70
2023-05-06T06:55:58.660Z,90.70
2023-05-06T06:58:27.673Z,90.60
2023-05-06T07:00:56.728Z,90.60
2023-05-06T07:03:25.780Z,90.60
2023-05-06T07:05:54.852Z,90.90
2023-05-06T07:08:23.960Z,90.50
2023-05-06T07:10:55.535Z,90.50
2023-05-06T07:13:24.613Z,90.40
2023-05-06T07:15:53.787Z,90.30
2023-05-06T07:18:23.031Z,90.30
2023-05-06T07:20:52.296Z,90.20
2023-05-06T07:23:21.560Z,90.20
2023-05-06T07:25:50.712Z,90.20
2023-05-06T07:28:21.419Z,90.10
2023-05-06T07:30:51.560Z,90.10
2023-05-06T07:33:20.797Z,90.00
2023-05-06T07:35:49.822Z,89.80
2023-05-06T07:38:19.445Z,89.60
2023-05-06T07:40:48.472Z,89.40
2023-05-06T07:43:17.711Z,89.20
2023-05-06T07:45:48.167Z,88.90
2023-05-06T07:48:20.201Z,88.80
2023-05-06T07:50:49.383Z,88.70
2023-05-06T07:53:18.429Z,88.50
2023-05-06T07:55:49.295Z,88.20
2023-05-06T07:58:18.513Z,88.00
2023-05-06T08:00:50.143Z,87.80
2023-05-06T08:03:19.423Z,87.70
2023-05-06T08:05:48.545Z,87.60
2023-05-06T08:08:17.529Z,87.40
2023-05-06T08:10:46.883Z,87.20
2023-05-06T08:13:16.205Z,87.10
2023-05-06T08:15:45.416Z,87.10
2023-05-06T08:18:22.186Z,87.20
2023-05-06T08:20:52.394Z,87.20
2023-05-06T08:23:21.832Z,87.30
2023-05-06T08:25:50.847Z,87.20
2023-05-06T08:28:19.842Z,87.30
2023-05-06T08:30:51.426Z,87.30
2023-05-06T08:33:21.983Z,87.30
2023-05-06T08:35:52.837Z,87.30
2023-05-06T08:38:21.909Z,87.40
2023-05-06T08:40:53.398Z,87.50
2023-05-06T08:43:22.963Z,87.70
2023-05-06T08:45:52.093Z,87.80
2023-05-06T08:48:22.559Z,87.90
2023-05-06T08:50:53.895Z,87.90
2023-05-06T08:53:22.763Z,88.00
2023-05-06T08:55:55.182Z,88.10
2023-05-06T08:58:26.140Z,87.90
2023-05-06T09:00:55.371Z,87.90
2023-05-06T09:03:26.077Z,87.90
2023-05-06T09:05:55.275Z,87.80
2023-05-06T09:08:24.432Z,87.90
2023-05-06T09:10:53.466Z,88.00
2023-05-06T09:13:22.546Z,87.90
2023-05-06T09:15:55.525Z,88.10
2023-05-06T09:18:25.962Z,88.00
2023-05-06T09:20:54.948Z,88.10
2023-05-06T09:23:24.129Z,88.00
2023-05-06T09:25:53.501Z,88.00
2023-05-06T09:28:22.527Z,88.00
2023-05-06T09:30:52.657Z,88.00
2023-05-06T09:33:23.116Z,87.90
2023-05-06T09:35:53.651Z,87.90
2023-05-06T09:38:22.913Z,88.00
2023-05-06T09:40:51.948Z,88.10
2023-05-06T09:43:21.574Z,88.20
2023-05-06T09:45:50.651Z,88.20
2023-05-06T09:48:19.774Z,88.40
2023-05-06T09:50:50.136Z,88.30
2023-05-06T09:53:21.601Z,88.50
2023-05-06T09:55:51.523Z,88.60
2023-05-06T09:58:21.145Z,88.60
2023-05-06T10:00:53.030Z,88.80
2023-05-06T10:03:23.479Z,88.90
2023-05-06T10:05:54.428Z,88.70
2023-05-06T10:08:25.625Z,88.70
2023-05-06T10:10:54.937Z,88.60
2023-05-06T10:13:25.349Z,88.40
2023-05-06T10:15:56.184Z,88.30
2023-05-06T10:18:28.113Z,88.40
2023-05-06T10:20:57.931Z,88.20
2023-05-06T10:23:36.550Z,88.00
2023-05-06T10:26:08.726Z,87.80
2023-05-06T10:28:42.198Z,87.60
2023-05-06T10:31:14.078Z,87.50
2023-05-06T10:33:46.440Z,87.50
2023-05-06T10:36:20.630Z,87.50
2023-05-06T10:38:56.448Z,87.50
2023-05-06T10:41:28.142Z,87.50
2023-05-06T10:43:59.333Z,87.50
2023-05-06T10:46:31.617Z,87.40
2023-05-06T10:49:20.726Z,87.20
2023-05-06T10:52:12.703Z,87.30
2023-05-06T10:54:52.924Z,87.10
2023-05-06T10:57:27.070Z,86.90
2023-05-06T10:59:56.567Z,86.70
2023-05-06T11:02:26.276Z,86.60
2023-05-06T11:05:01.984Z,86.50
2023-05-06T11:07:32.112Z,86.30
2023-05-06T11:10:05.457Z,86.20
2023-05-06T11:12:50.327Z,86.10
2023-05-06T11:15:27.129Z,86.00
2023-05-06T11:17:57.747Z,85.90
2023-05-06T11:20:27.874Z,85.90
2023-05-06T11:22:56.901Z,86.00
2023-05-06T11:25:47.228Z,85.80
2023-05-06T11:28:17.099Z,85.60
2023-05-06T11:30:56.434Z,85.40
2023-05-06T11:33:28.808Z,85.30
2023-05-06T11:35:57.839Z,85.30
2023-05-06T11:38:27.590Z,85.30
2023-05-06T11:40:57.990Z,86.10
2023-05-06T11:43:26.970Z,85.00
2023-05-06T11:45:55.995Z,85.00
2023-05-06T11:48:25.115Z,84.80
2023-05-06T11:50:55.758Z,84.80
2023-05-06T11:53:25.709Z,84.80
2023-05-06T11:55:55.284Z,84.60
2023-05-06T11:58:28.518Z,84.70
2023-05-06T12:00:59.089Z,84.40
2023-05-06T12:03:29.773Z,84.40
2023-05-06T12:05:59.640Z,84.30
2023-05-06T12:08:30.960Z,83.90
2023-05-06T12:11:02.231Z,83.70
2023-05-06T12:13:32.576Z,83.70
2023-05-06T12:16:01.832Z,83.90
2023-05-06T12:18:31.958Z,84.00
2023-05-06T12:21:03.819Z,84.10
2023-05-06T12:23:33.065Z,84.50
2023-05-06T12:26:04.130Z,84.70
2023-05-06T12:28:36.782Z,84.80
2023-05-06T12:31:20.127Z,84.80
2023-05-06T12:33:50.644Z,84.50
2023-05-06T12:36:20.149Z,84.50
2023-05-06T12:38:53.055Z,84.30
2023-05-06T12:41:22.830Z,84.20
2023-05-06T12:43:53.561Z,84.00
2023-05-06T12:46:22.542Z,83.70
2023-05-06T12:48:59.268Z,83.60
2023-05-06T12:51:28.913Z,83.40
2023-05-06T12:53:58.060Z,83.20
2023-05-06T12:56:27.174Z,82.90
2023-05-06T12:59:02.485Z,82.60
2023-05-06T13:01:31.776Z,82.30
2023-05-06T13:04:01.005Z,81.90
2023-05-06T13:06:30.011Z,81.60
2023-05-06T13:08:59.549Z,81.60
2023-05-06T13:11:28.573Z,81.60
2023-05-06T13:13:57.602Z,81.50
2023-05-06T13:16:29.305Z,81.30
2023-05-06T13:18:58.329Z,81.20
2023-05-06T13:21:27.421Z,81.20
2023-05-06T13:23:56.426Z,81.40
2023-05-06T13:26:25.539Z,81.40
2023-05-06T13:28:55.641Z,81.60
2023-05-06T13:31:30.858Z,81.80
2023-05-06T13:34:01.455Z,81.80
2023-05-06T13:36:31.215Z,82.10
2023-05-06T13:39:00.672Z,82.30
2023-05-06T13:41:29.724Z,82.10
2023-05-06T13:43:58.735Z,82.10
2023-05-06T13:46:28.106Z,82.00
2023-05-06T13:48:57.212Z,82.20
2023-05-06T13:51:30.779Z,82.10
2023-05-06T13:53:59.923Z,82.10
2023-05-06T13:56:29.176Z,82.20
2023-05-06T13:58:58.189Z,82.50
2023-05-06T14:01:27.213Z,82.60
2023-05-06T14:03:56.305Z,82.90
2023-05-06T14:06:25.303Z,83.00
2023-05-06T14:08:55.797Z,82.90
2023-05-06T14:11:24.789Z,82.90
2023-05-06T14:13:53.844Z,83.00
2023-05-06T14:16:22.983Z,83.10
2023-05-06T14:18:52.071Z,83.00
2023-05-06T14:21:21.112Z,83.00
2023-05-06T14:23:50.138Z,83.00
2023-05-06T14:26:21.111Z,83.10
2023-05-06T14:28:50.121Z,83.20
2023-05-06T14:31:19.311Z,83.40
2023-05-06T14:33:48.403Z,83.30
2023-05-06T14:36:19.979Z,83.40
2023-05-06T14:38:49.133Z,83.40
2023-05-06T14:41:18.163Z,83.40
2023-05-06T14:43:48.660Z,83.40
2023-05-06T14:46:17.958Z,83.50
2023-05-06T14:48:47.091Z,83.80
2023-05-06T14:51:16.152Z,84.00
2023-05-06T14:53:45.359Z,84.20
2023-05-06T14:56:14.351Z,84.40
2023-05-06T14:58:43.386Z,84.60
2023-05-06T15:01:14.010Z,84.50
2023-05-06T15:03:43.190Z,84.50
2023-05-06T15:06:12.744Z,84.60
2023-05-06T15:08:41.750Z,84.80
2023-05-06T15:11:10.953Z,84.80
2023-05-06T15:13:40.111Z,84.70
2023-05-06T15:16:11.444Z,84.90
2023-05-06T15:18:42.912Z,84.80
2023-05-06T15:21:13.392Z,84.90
2023-05-06T15:23:42.465Z,84.80
2023-05-06T15:26:11.498Z,84.70
2023-05-06T15:28:40.560Z,84.70
2023-05-06T15:31:09.645Z,84.80
2023-05-06T15:33:38.710Z,84.80
2023-05-06T15:36:09.947Z,84.70
2023-05-06T15:39:00.339Z,84.70
2023-05-06T15:41:32.211Z,84.50
2023-05-06T15:44:02.045Z,84.30
2023-05-06T15:46:32.363Z,84.20
2023-05-06T15:49:31.913Z,84.10
2023-05-06T15:51:53.147Z,84.10
2023-05-06T15:54:24.671Z,84.00
2023-05-06T15:56:53.690Z,84.00
2023-05-06T15:59:23.121Z,84.10
2023-05-06T16:04:29.963Z,84.20
2023-05-06T16:07:00.838Z,84.40
2023-05-06T16:09:29.988Z,84.50
2023-05-06T16:11:59.099Z,84.60
2023-05-06T16:14:28.156Z,84.70
2023-05-06T16:16:57.197Z,84.80
2023-05-06T16:19:30.303Z,84.90
2023-05-06T16:22:03.759Z,85.00
2023-05-06T16:24:32.791Z,85.00
2023-05-06T16:27:02.505Z,85.10
2023-05-06T16:29:35.399Z,85.00
2023-05-06T16:32:04.520Z,85.10
2023-05-06T16:34:33.668Z,85.00
2023-05-06T16:37:04.087Z,85.10
2023-05-06T16:39:33.098Z,85.30
2023-05-06T16:42:02.308Z,85.20
2023-05-06T16:44:31.555Z,85.20
2023-05-06T16:47:00.758Z,85.10
2023-05-06T16:49:29.882Z,85.00
2023-05-06T16:52:00.554Z,85.10
2023-05-06T16:54:31.126Z,85.10
2023-05-06T16:57:00.225Z,85.10
2023-05-06T16:59:29.229Z,85.20
2023-05-06T17:01:58.396Z,85.20
2023-05-06T17:04:28.493Z,85.30
2023-05-06T17:06:57.647Z,85.40
2023-05-06T17:09:26.659Z,85.30
2023-05-06T17:11:57.207Z,85.40
2023-05-06T17:14:26.527Z,85.70
2023-05-06T17:16:56.286Z,85.90
2023-05-06T17:19:25.363Z,86.20
2023-05-06T17:21:54.389Z,86.40
2023-05-06T17:24:23.686Z,86.60
2023-05-06T17:26:52.733Z,87.80
2023-05-06T17:29:23.279Z,87.20
2023-05-06T17:31:52.396Z,87.60
2023-05-06T17:36:55.974Z,88.00
2023-05-06T17:39:25.080Z,88.40
2023-05-06T17:41:54.623Z,88.80
2023-05-06T17:44:25.151Z,89.10
2023-05-06T17:46:54.324Z,89.50
2023-05-06T17:49:23.571Z,89.90
2023-05-06T17:51:52.669Z,90.00
2023-05-06T17:54:21.787Z,90.20
2023-05-06T17:56:52.941Z,90.20
2023-05-06T17:59:22.128Z,90.40
2023-05-06T18:01:52.597Z,90.40
2023-05-06T18:04:21.747Z,90.40
2023-05-06T18:06:51.012Z,90.50
2023-05-06T18:09:20.129Z,90.60
2023-05-06T18:11:49.254Z,90.70
2023-05-06T18:14:18.304Z,90.70
2023-05-06T18:16:47.541Z,90.70
2023-05-06T18:19:21.321Z,90.80
2023-05-06T18:21:50.478Z,90.80
2023-05-06T18:24:19.819Z,90.80
2023-05-06T18:26:48.837Z,90.70
2023-05-06T18:29:17.902Z,90.70
2023-05-06T18:31:49.373Z,90.80
2023-05-06T18:34:25.419Z,90.80
2023-05-06T18:36:54.472Z,90.80
2023-05-06T18:39:24.410Z,90.90
2023-05-06T18:41:53.492Z,90.90
2023-05-06T18:44:22.580Z,90.90
2023-05-06T18:46:51.722Z,90.90
2023-05-06T18:49:22.815Z,91.00
2023-05-06T18:51:51.953Z,91.00
2023-05-06T18:54:21.118Z,91.00
2023-05-06T18:56:51.739Z,91.40
2023-05-06T18:59:21.473Z,91.10
2023-05-06T19:01:50.887Z,91.10
2023-05-06T19:04:21.351Z,91.10
2023-05-06T19:06:51.646Z,91.00
2023-05-06T19:09:21.406Z,91.00
2023-05-06T19:11:50.408Z,91.00
2023-05-06T19:14:19.434Z,91.00
2023-05-06T19:16:49.343Z,91.00
2023-05-06T19:19:21.014Z,91.10
2023-05-06T19:21:50.036Z,91.10
2023-05-06T19:24:19.094Z,91.10
2023-05-06T19:26:48.158Z,91.20
2023-05-06T19:29:17.275Z,91.20
2023-05-06T19:31:46.291Z,91.30
2023-05-06T19:34:15.824Z,91.30
2023-05-06T19:36:46.284Z,91.40
2023-05-06T19:39:16.429Z,91.50
2023-05-06T19:41:45.519Z,91.50
2023-05-06T19:44:14.791Z,91.50
2023-05-06T19:46:43.848Z,91.50
2023-05-06T19:49:12.909Z,91.50
2023-05-06T19:51:41.938Z,91.50
2023-05-06T19:54:12.408Z,91.50
2023-05-06T19:56:41.481Z,91.60
2023-05-06T19:59:10.549Z,91.50
2023-05-06T20:01:39.603Z,91.50
2023-05-06T20:04:09.792Z,91.50
2023-05-06T20:06:38.924Z,91.50
2023-05-06T20:09:07.938Z,91.50
2023-05-06T20:11:38.354Z,91.40
2023-05-06T20:14:07.347Z,91.50
2023-05-06T20:16:36.386Z,91.50
2023-05-06T20:19:05.420Z,91.50
2023-05-06T20:21:34.483Z,91.50
2023-05-06T20:24:03.583Z,91.50
2023-05-06T20:26:32.654Z,91.40
2023-05-06T20:29:03.114Z,91.40
2023-05-06T20:31:32.182Z,91.40
2023-05-06T20:34:01.399Z,91.40
2023-05-06T20:36:31.039Z,91.30
2023-05-06T20:39:00.644Z,91.30
2023-05-06T20:41:31.107Z,91.20
2023-05-06T20:44:00.182Z,91.20
2023-05-06T20:46:30.674Z,91.20
2023-05-06T20:48:59.728Z,91.20
2023-05-06T20:51:28.866Z,91.10
2023-05-06T20:53:59.010Z,91.10
2023-05-06T20:56:30.373Z,91.10
2023-05-06T20:58:59.538Z,91.10
2023-05-06T21:01:30.252Z,91.10
2023-05-06T21:04:01.439Z,91.10
2023-05-06T21:06:30.494Z,91.10
2023-05-06T21:08:59.494Z,91.10
2023-05-06T21:11:29.026Z,91.00
2023-05-06T21:13:59.293Z,91.00
2023-05-06T21:16:28.342Z,90.90
2023-05-06T21:18:58.756Z,90.90
2023-05-06T21:21:30.589Z,90.90
2023-05-06T21:23:59.712Z,90.80
2023-05-06T21:26:28.833Z,90.80
2023-05-06T21:28:57.975Z,90.70
2023-05-06T21:31:27.273Z,90.80
2023-05-06T21:33:59.864Z,90.70
2023-05-06T21:36:28.970Z,90.70
2023-05-06T21:39:03.787Z,90.60
2023-05-06T21:41:35.416Z,90.60
2023-05-06T21:44:05.122Z,90.60
2023-05-06T21:46:34.933Z,90.60
2023-05-06T21:49:05.792Z,90.60
2023-05-06T21:51:35.935Z,90.70
2023-05-06T21:54:05.184Z,90.70
2023-05-06T21:56:34.206Z,90.70
2023-05-06T21:59:03.291Z,90.80
2023-05-06T22:01:32.349Z,90.80
2023-05-06T22:04:01.526Z,90.70
2023-05-06T22:06:32.374Z,90.60
2023-05-06T22:09:01.338Z,90.60
2023-05-06T22:11:30.367Z,90.50
2023-05-06T22:13:59.353Z,90.50
2023-05-06T22:16:29.603Z,90.50
2023-05-06T22:18:59.452Z,90.50
2023-05-06T22:21:29.903Z,90.50
2023-05-06T22:24:00.626Z,90.40
2023-05-06T22:26:29.754Z,90.40
2023-05-06T22:28:58.774Z,90.50
2023-05-06T22:31:27.794Z,90.50
2023-05-06T22:33:58.175Z,90.50
2023-05-06T22:36:29.085Z,90.40
2023-05-06T22:38:59.881Z,90.50
2023-05-06T22:41:28.952Z,90.50
2023-05-06T22:43:58.238Z,90.60
2023-05-06T22:46:28.033Z,90.60
2023-05-06T22:48:57.995Z,90.70
2023-05-06T22:51:28.079Z,90.70
2023-05-06T22:53:57.093Z,90.70
2023-05-06T22:56:27.530Z,90.70
2023-05-06T22:58:56.546Z,90.70
2023-05-06T23:01:31.684Z,90.70
2023-05-06T23:04:00.864Z,90.70
2023-05-06T23:06:31.066Z,90.70
2023-05-06T23:09:00.207Z,90.80
2023-05-06T23:11:30.579Z,90.90
2023-05-06T23:13:59.592Z,90.90
2023-05-06T23:16:29.603Z,90.90
2023-05-06T23:18:58.730Z,90.90
2023-05-06T23:21:27.959Z,90.90
2023-05-06T23:23:56.957Z,90.90
2023-05-06T23:26:26.716Z,91.00
2023-05-06T23:28:57.129Z,91.00
2023-05-06T23:31:26.372Z,91.00
2023-05-06T23:33:55.423Z,90.90
2023-05-06T23:36:24.399Z,90.80
2023-05-06T23:38:53.382Z,90.70
2023-05-06T23:41:23.621Z,90.70
2023-05-06T23:43:52.863Z,90.60
2023-05-06T23:46:23.359Z,90.60
2023-05-06T23:48:52.458Z,90.60
2023-05-06T23:51:21.454Z,90.60
2023-05-06T23:53:50.596Z,90.50
2023-05-06T23:56:20.575Z,90.50
2023-05-06T23:58:49.618Z,90.50
